Time,TemperatureF,DewpointF,PressureIn,WindDirection,WindDirectionDegrees,WindSpeedMPH,WindSpeedGustMPH,Humidity,HourlyPrecipIn,Conditions,Clouds,dailyrainin,SoftwareType,DateUTC
2013-01-12 00:02:00,0.0,-7.0,30.14,NW,310,4.0,-999.0,71,-99.99,,,-99.99,,2013-01-12 07:02:00,
2013-01-12 00:32:00,-1.0,-9.0,30.14,NW,314,2.0,-999.0,68,-99.99,,,-99.99,,2013-01-12 07:32:00,
2013-01-12 00:52:00,-1.0,-9.0,30.15,NNW,342,3.0,-999.0,69,-99.99,,,-99.99,,2013-01-12 07:52:00,
2013-01-12 01:02:00,-1.0,-9.0,30.14,NNE,19,4.0,-999.0,69,-99.99,,,-99.99,,2013-01-12 08:02:00,
2013-01-12 01:22:00,-1.0,-9.0,30.13,NE,44,5.0,-999.0,68,-99.99,,,-99.99,,2013-01-12 08:22:00,
2013-01-12 01:32:00,0.0,-8.0,30.13,NE,46,4.0,-999.0,68,-99.99,,,-99.99,,2013-01-12 08:32:00,
2013-01-12 01:52:00,0.0,-8.0,30.11,NE,46,4.0,-999.0,67,-99.99,,,-99.99,,2013-01-12 08:52:00,
2013-01-12 02:02:00,-1.0,-9.0,30.11,NE,46,2.0,-999.0,68,-99.99,,,-99.99,,2013-01-12 09:02:00,
2013-01-12 02:32:00,-1.0,-9.0,30.10,NE,46,2.0,-999.0,68,-99.99,,,-99.99,,2013-01-12 09:32:00,
2013-01-12 02:52:00,-1.0,-9.0,30.11,NE,45,3.0,-999.0,68,-99.99,,,-99.99,,2013-01-12 09:52:00,
2013-01-12 03:02:00,-1.0,-9.0,30.11,NE,44,2.0,-999.0,67,-99.99,,,-99.99,,2013-01-12 10:02:00,
2013-01-12 03:22:00,-1.0,-9.0,30.11,NE,44,1.0,-999.0,67,-99.99,,,-99.99,,2013-01-12 10:22:00,
2013-01-12 03:32:00,-1.0,-9.0,30.11,NE,44,2.0,-999.0,68,-99.99,,,-99.99,,2013-01-12 10:32:00,
2013-01-12 03:52:00,-1.0,-9.0,30.11,NE,44,1.0,-999.0,68,-99.99,,,-99.99,,2013-01-12 10:52:00,
2013-01-12 04:02:00,-1.0,-9.0,30.11,NE,44,2.0,-999.0,67,-99.99,,,-99.99,,2013-01-12 11:02:00,
2013-01-12 04:22:00,-1.0,-9.0,30.10,NE,44,2.0,-999.0,67,-99.99,,,-99.99,,2013-01-12 11:22:00,
2013-01-12 04:32:00,0.0,-8.0,30.10,NE,44,2.0,-999.0,67,-99.99,,,-99.99,,2013-01-12 11:32:00,
2013-01-12 04:42:00,0.0,-8.0,30.10,NE,44,2.0,-999.0,67,-99.99,,,-99.99,,2013-01-12 11:42:00,
2013-01-12 04:52:00,-1.0,-10.0,30.09,NE,44,1.0,-999.0,66,-99.99,,,-99.99,,2013-01-12 11:52:00,
2013-01-12 05:02:00,-3.0,-11.0,30.11,NE,44,1.0,-999.0,66,-99.99,,,-99.99,,2013-01-12 12:02:00,
2013-01-12 05:22:00,-4.0,-12.0,30.12,NE,44,1.0,-999.0,67,-99.99,,,-99.99,,2013-01-12 12:22:00,
2013-01-12 05:32:00,-4.0,-12.0,30.13,NE,44,0.0,-999.0,68,-99.99,,,-99.99,,2013-01-12 12:32:00,
2013-01-12 05:52:00,-5.0,-13.0,30.16,NE,44,0.0,-999.0,68,-99.99,,,-99.99,,2013-01-12 12:52:00,
2013-01-12 06:02:00,-5.0,-13.0,30.16,NE,44,2.0,-999.0,68,-99.99,,,-99.99,,2013-01-12 13:02:00,
2013-01-12 06:22:00,-6.0,-14.0,30.18,NE,44,0.0,-999.0,68,-99.99,,,-99.99,,2013-01-12 13:22:00,
2013-01-12 06:32:00,-5.0,-13.0,30.19,NE,44,2.0,-999.0,69,-99.99,,,-99.99,,2013-01-12 13:32:00,
2013-01-12 06:52:00,-5.0,-13.0,30.22,NE,44,2.0,-999.0,68,-99.99,,,-99.99,,2013-01-12 13:52:00,
2013-01-12 07:02:00,-6.0,-14.0,30.23,NE,44,3.0,-999.0,67,-99.99,,,-99.99,,2013-01-12 14:02:00,
2013-01-12 07:32:00,-6.0,-14.0,30.26,NE,44,2.0,-999.0,68,-99.99,,,-99.99,,2013-01-12 14:32:00,
2013-01-12 07:53:00,-5.0,-13.0,30.29,NE,41,4.0,-999.0,68,-99.99,,,-99.99,,2013-01-12 14:53:00,
2013-01-12 08:33:00,-3.0,-11.0,30.31,NE,42,5.0,-999.0,66,-99.99,,,-99.99,,2013-01-12 15:33:00,
2013-01-12 08:52:00,-1.0,-10.0,30.33,NE,42,4.0,-999.0,65,-99.99,,,-99.99,,2013-01-12 15:52:00,
2013-01-12 09:02:00,0.0,-9.0,30.32,NE,42,2.0,-999.0,64,-99.99,,,-99.99,,2013-01-12 16:02:00,
2013-01-12 09:12:00,0.0,-9.0,30.32,NE,42,2.0,-999.0,64,-99.99,,,-99.99,,2013-01-12 16:12:00,
2013-01-12 09:22:00,3.0,-7.0,30.30,NE,42,3.0,-999.0,61,-99.99,,,-99.99,,2013-01-12 16:22:00,
2013-01-12 09:32:00,5.0,-6.0,30.29,NE,42,2.0,-999.0,59,-99.99,,,-99.99,,2013-01-12 16:32:00,
2013-01-12 09:42:00,5.0,-6.0,30.29,NE,42,2.0,-999.0,59,-99.99,,,-99.99,,2013-01-12 16:42:00,
2013-01-12 09:52:00,7.0,-5.0,30.29,NE,42,2.0,-999.0,56,-99.99,,,-99.99,,2013-01-12 16:52:00,
2013-01-12 10:02:00,9.0,-5.0,30.28,NE,42,2.0,-999.0,53,-99.99,,,-99.99,,2013-01-12 17:02:00,
2013-01-12 10:12:00,9.0,-5.0,30.28,NE,42,2.0,-999.0,53,-99.99,,,-99.99,,2013-01-12 17:12:00,
2013-01-12 10:22:00,12.0,-3.0,30.27,NE,42,2.0,-999.0,51,-99.99,,,-99.99,,2013-01-12 17:22:00,
2013-01-12 10:32:00,12.0,-4.0,30.24,NE,42,3.0,-999.0,47,-99.99,,,-99.99,,2013-01-12 17:32:00,
2013-01-12 10:42:00,12.0,-4.0,30.24,NE,42,3.0,-999.0,47,-99.99,,,-99.99,,2013-01-12 17:42:00,
2013-01-12 10:53:00,14.0,-2.0,30.26,NE,42,3.0,-999.0,47,-99.99,,,-99.99,,2013-01-12 17:53:00,
2013-01-12 11:02:00,15.0,-2.0,30.24,NE,42,2.0,-999.0,47,-99.99,,,-99.99,,2013-01-12 18:02:00,
2013-01-12 11:12:00,15.0,-2.0,30.24,NE,42,2.0,-999.0,47,-99.99,,,-99.99,,2013-01-12 18:12:00,
2013-01-12 11:22:00,19.0,0.0,30.21,NE,42,1.0,-999.0,42,-99.99,,,-99.99,,2013-01-12 18:22:00,
2013-01-12 11:33:00,20.0,-1.0,30.19,NE,42,1.0,-999.0,39,-99.99,,,-99.99,,2013-01-12 18:33:00,
2013-01-12 11:42:00,20.0,-1.0,30.19,NE,42,1.0,-999.0,39,-99.99,,,-99.99,,2013-01-12 18:42:00,
2013-01-12 11:52:00,20.0,0.0,30.18,NE,42,1.0,-999.0,41,-99.99,,,-99.99,,2013-01-12 18:52:00,
2013-01-12 12:03:00,20.0,0.0,30.18,NE,42,1.0,-999.0,41,-99.99,,,-99.99,,2013-01-12 19:03:00,
2013-01-12 12:12:00,20.0,0.0,30.18,NE,42,1.0,-999.0,41,-99.99,,,-99.99,,2013-01-12 19:12:00,
2013-01-12 12:22:00,22.0,-1.0,30.14,NE,43,1.0,-999.0,36,-99.99,,,-99.99,,2013-01-12 19:22:00,
2013-01-12 12:33:00,22.0,-1.0,30.15,NE,42,1.0,-999.0,36,-99.99,,,-99.99,,2013-01-12 19:33:00,
2013-01-12 12:42:00,22.0,-1.0,30.15,NE,42,1.0,-999.0,36,-99.99,,,-99.99,,2013-01-12 19:42:00,
2013-01-12 12:52:00,21.0,1.0,30.14,NE,41,2.0,-999.0,41,-99.99,,,-99.99,,2013-01-12 19:52:00,
2013-01-12 13:02:00,22.0,1.0,30.14,West,281,3.0,-999.0,39,-99.99,,,-99.99,,2013-01-12 20:02:00,
2013-01-12 13:12:00,22.0,1.0,30.14,West,281,3.0,-999.0,39,-99.99,,,-99.99,,2013-01-12 20:12:00,
2013-01-12 13:22:00,22.0,1.0,30.13,West,281,2.0,-999.0,39,-99.99,,,-99.99,,2013-01-12 20:22:00,
2013-01-12 13:32:00,22.0,1.0,30.11,SW,233,5.0,-999.0,39,-99.99,,,-99.99,,2013-01-12 20:32:00,
2013-01-12 13:42:00,22.0,1.0,30.11,SW,233,5.0,-999.0,39,-99.99,,,-99.99,,2013-01-12 20:42:00,
2013-01-12 13:52:00,23.0,1.0,30.11,WSW,238,5.0,-999.0,38,-99.99,,,-99.99,,2013-01-12 20:52:00,
2013-01-12 14:02:00,23.0,2.0,30.11,SW,229,6.0,-999.0,39,-99.99,,,-99.99,,2013-01-12 21:02:00,
2013-01-12 14:12:00,23.0,2.0,30.11,SW,229,6.0,-999.0,39,-99.99,,,-99.99,,2013-01-12 21:12:00,
2013-01-12 14:22:00,23.0,3.0,30.11,West,264,6.0,-999.0,41,-99.99,,,-99.99,,2013-01-12 21:22:00,
2013-01-12 14:32:00,22.0,1.0,30.11,WSW,249,6.0,-999.0,40,-99.99,,,-99.99,,2013-01-12 21:32:00,
2013-01-12 14:42:00,22.0,1.0,30.11,WSW,249,6.0,-999.0,40,-99.99,,,-99.99,,2013-01-12 21:42:00,
2013-01-12 14:52:00,22.0,1.0,30.12,WSW,255,8.0,-999.0,40,-99.99,,,-99.99,,2013-01-12 21:52:00,
2013-01-12 15:02:00,22.0,1.0,30.12,West,263,8.0,-999.0,40,-99.99,,,-99.99,,2013-01-12 22:02:00,
2013-01-12 15:12:00,22.0,1.0,30.12,West,263,8.0,-999.0,40,-99.99,,,-99.99,,2013-01-12 22:12:00,
2013-01-12 15:22:00,22.0,2.0,30.13,WSW,255,7.0,-999.0,41,-99.99,,,-99.99,,2013-01-12 22:22:00,
2013-01-12 15:32:00,23.0,3.0,30.13,West,259,8.0,-999.0,41,-99.99,,,-99.99,,2013-01-12 22:32:00,
2013-01-12 15:42:00,23.0,3.0,30.13,West,259,8.0,-999.0,41,-99.99,,,-99.99,,2013-01-12 22:42:00,
2013-01-12 15:53:00,22.0,3.0,30.12,WSW,256,7.0,-999.0,43,-99.99,,,-99.99,,2013-01-12 22:53:00,
2013-01-12 16:02:00,22.0,3.0,30.13,WSW,251,7.0,-999.0,43,-99.99,,,-99.99,,2013-01-12 23:02:00,
2013-01-12 16:12:00,22.0,3.0,30.13,WSW,251,7.0,-999.0,43,-99.99,,,-99.99,,2013-01-12 23:12:00,
2013-01-12 16:22:00,22.0,3.0,30.13,West,267,6.0,-999.0,43,-99.99,,,-99.99,,2013-01-12 23:22:00,
2013-01-12 16:32:00,21.0,7.0,30.13,West,269,3.0,-999.0,55,-99.99,,,-99.99,,2013-01-12 23:32:00,
2013-01-12 16:42:00,21.0,7.0,30.13,West,269,3.0,-999.0,55,-99.99,,,-99.99,,2013-01-12 23:42:00,
2013-01-12 16:53:00,20.0,8.0,30.17,West,272,3.0,-999.0,58,-99.99,,,-99.99,,2013-01-12 23:53:00,
2013-01-12 17:02:00,19.0,7.0,30.19,West,273,2.0,-999.0,60,-99.99,,,-99.99,,2013-01-13 00:02:00,
2013-01-12 17:12:00,19.0,7.0,30.19,West,273,2.0,-999.0,60,-99.99,,,-99.99,,2013-01-13 00:12:00,
2013-01-12 17:22:00,17.0,6.0,30.21,West,273,2.0,-999.0,62,-99.99,,,-99.99,,2013-01-13 00:22:00,
2013-01-12 17:32:00,16.0,5.0,30.22,West,273,1.0,-999.0,62,-99.99,,,-99.99,,2013-01-13 00:32:00,
2013-01-12 17:42:00,16.0,5.0,30.22,West,273,1.0,-999.0,62,-99.99,,,-99.99,,2013-01-13 00:42:00,
2013-01-12 17:53:00,15.0,5.0,30.22,West,273,0.0,-999.0,64,-99.99,,,-99.99,,2013-01-13 00:53:00,
2013-01-12 18:02:00,14.0,4.0,30.24,West,273,0.0,-999.0,65,-99.99,,,-99.99,,2013-01-13 01:02:00,
2013-01-12 18:12:00,14.0,4.0,30.24,West,273,0.0,-999.0,65,-99.99,,,-99.99,,2013-01-13 01:12:00,
2013-01-12 18:22:00,13.0,4.0,30.24,West,273,0.0,-999.0,68,-99.99,,,-99.99,,2013-01-13 01:22:00,
2013-01-12 18:32:00,12.0,4.0,30.26,West,273,0.0,-999.0,68,-99.99,,,-99.99,,2013-01-13 01:32:00,
2013-01-12 18:42:00,12.0,4.0,30.26,West,273,0.0,-999.0,68,-99.99,,,-99.99,,2013-01-13 01:42:00,
2013-01-12 18:53:00,10.0,2.0,30.28,West,273,0.0,-999.0,68,-99.99,,,-99.99,,2013-01-13 01:53:00,
2013-01-12 19:02:00,7.0,-1.0,30.30,West,273,1.0,-999.0,70,-99.99,,,-99.99,,2013-01-13 02:02:00,
2013-01-12 19:22:00,6.0,-1.0,30.32,West,273,0.0,-999.0,73,-99.99,,,-99.99,,2013-01-13 02:22:00,
2013-01-12 19:32:00,5.0,-2.0,30.32,West,273,1.0,-999.0,72,-99.99,,,-99.99,,2013-01-13 02:32:00,
2013-01-12 19:53:00,3.0,-3.0,30.32,West,273,1.0,-999.0,74,-99.99,,,-99.99,,2013-01-13 02:53:00,
2013-01-12 20:02:00,2.0,-4.0,30.32,West,273,1.0,-999.0,74,-99.99,,,-99.99,,2013-01-13 03:02:00,
2013-01-12 20:22:00,1.0,-5.0,30.34,West,273,3.0,-999.0,74,-99.99,,,-99.99,,2013-01-13 03:22:00,
2013-01-12 20:32:00,0.0,-7.0,30.30,West,273,3.0,-999.0,73,-99.99,,,-99.99,,2013-01-13 03:32:00,
2013-01-12 20:52:00,1.0,-6.0,30.30,West,273,2.0,-999.0,73,-99.99,,,-99.99,,2013-01-13 03:52:00,
2013-01-12 21:02:00,0.0,-7.0,30.31,West,273,1.0,-999.0,72,-99.99,,,-99.99,,2013-01-13 04:02:00,
2013-01-12 21:22:00,0.0,-7.0,30.31,West,273,3.0,-999.0,72,-99.99,,,-99.99,,2013-01-13 04:22:00,
2013-01-12 21:32:00,-1.0,-8.0,30.26,West,273,1.0,-999.0,72,-99.99,,,-99.99,,2013-01-13 04:32:00,
2013-01-12 21:52:00,-1.0,-8.0,30.27,West,273,1.0,-999.0,72,-99.99,,,-99.99,,2013-01-13 04:52:00,
2013-01-12 22:03:00,-2.0,-9.0,30.27,West,273,1.0,-999.0,72,-99.99,,,-99.99,,2013-01-13 05:03:00,
2013-01-12 22:22:00,-2.0,-9.0,30.27,West,273,1.0,-999.0,72,-99.99,,,-99.99,,2013-01-13 05:22:00,
2013-01-12 22:32:00,-2.0,-9.0,30.23,West,273,2.0,-999.0,72,-99.99,,,-99.99,,2013-01-13 05:32:00,
2013-01-12 22:52:00,-2.0,-9.0,30.24,West,273,2.0,-999.0,72,-99.99,,,-99.99,,2013-01-13 05:52:00,
2013-01-12 23:02:00,-2.0,-9.0,30.24,West,273,3.0,-999.0,72,-99.99,,,-99.99,,2013-01-13 06:02:00,
2013-01-12 23:22:00,-3.0,-10.0,30.25,West,273,2.0,-999.0,72,-99.99,,,-99.99,,2013-01-13 06:22:00,
2013-01-12 23:32:00,-2.0,-9.0,30.23,West,273,2.0,-999.0,72,-99.99,,,-99.99,,2013-01-13 06:32:00,
2013-01-12 23:52:00,-3.0,-10.0,30.23,West,273,1.0,-999.0,71,-99.99,,,-99.99,,2013-01-13 06:52:00,